Stratford, South Dakota
Current Conditions -  °F | °C
As of 1:11 PM on Saturday 20 Dec 2014 (Local Time) from KABR Reporting Station
Haze Haze  
Wind Chill: 16°   Ceiling: 200
Heat Index: 27°   Visibility: 3mi
Dew Point: 25°   Wind: 13mph
Humidity: 92%   Direction: 190°S
Pressure: 29.98"   Gusts: NA
Location:  45.32°N, 98.3°W
Report Text: KABR 201911Z AUTO 19011KT 3SM BR OVC002 M03/M04 A2998 RMK AO2 T10281039
Loading
Personal Weather Stations






























Interactive Weather Map New forecast layout! Learn more

10-Day Weather Forecast

Advertisements
Track Severe Weather on mobile